createdAt,value
2022-12-18T00:03:44.771Z,99.10
2022-12-18T00:29:44.405Z,97.90
2022-12-18T01:59:58.441Z,94.90
2022-12-18T03:56:12.556Z,93.50
2022-12-18T04:21:42.296Z,93.30
2022-12-18T05:12:26.154Z,94.20
2022-12-18T05:32:44.678Z,94.30
2022-12-18T06:13:30.933Z,99.90
2022-12-18T06:43:39.623Z,99.90
2022-12-18T07:13:39.361Z,99.90
2022-12-18T07:29:10.514Z,99.90
2022-12-18T07:59:16.585Z,99.90
2022-12-18T08:15:12.542Z,99.90
2022-12-18T08:19:40.723Z,99.90
2022-12-18T08:45:18.649Z,95.90
2022-12-18T09:10:53.421Z,92.80
2022-12-18T09:30:52.150Z,92.20
2022-12-18T09:56:27.427Z,90.80
2022-12-18T10:36:56.667Z,90.90
2022-12-18T12:38:40.532Z,91.30
2022-12-18T13:29:12.037Z,91.70
2022-12-18T14:14:56.090Z,94.00
2022-12-18T15:30:22.651Z,95.80
2022-12-18T16:05:51.861Z,96.10
2022-12-18T16:26:32.369Z,96.70
2022-12-18T16:51:29.386Z,97.80
2022-12-18T17:11:55.611Z,97.90
2022-12-18T17:42:47.982Z,98.80
2022-12-18T18:08:02.118Z,99.20
2022-12-18T18:28:20.525Z,98.70
2022-12-18T19:14:01.453Z,99.90
2022-12-18T19:34:04.170Z,99.90
2022-12-18T19:54:35.100Z,99.90
2022-12-18T20:14:57.479Z,99.90
2022-12-18T20:49:47.942Z,99.90
2022-12-18T21:05:41.001Z,99.90
2022-12-18T21:30:58.712Z,99.00
2022-12-18T21:51:04.520Z,98.00
2022-12-18T22:11:34.487Z,97.80
2022-12-18T22:47:06.174Z,97.80
2022-12-18T22:51:27.346Z,97.90
2022-12-18T23:12:21.764Z,97.60
2022-12-18T23:42:12.090Z,98.20
